Time;durP1;ratioP1;P1;durP2;ratioP2;P2;SDS_P1;SDS_P2;PMS_P1;PMS_P2;Temp;Humidity;BMP_temperature;BMP_pressure;BME280_temperature;BME280_humidity;BME280_pressure;Samples;Min_cycle;Max_cycle;Signal;HPM_P1;HPM_P2
2022/02/01 00:01:43;;;;;;;61.92;20.25;;;;;;;-1.18;71.57;98091.97;1710088;81;21489;-77
2022/02/01 00:04:07;;;;;;;66.97;21.20;;;;;;;-1.26;72.39;98087.66;1710611;81;20988;-77
2022/02/01 00:14:40;;;;;;;66.28;21.90;;;;;;;-1.38;73.25;98098.22;1719058;81;20993;-77
2022/02/01 00:33:23;;;;;;;83.22;25.32;;;;;;;-1.56;73.89;98120.19;1631950;86;21143;-77
2022/02/01 00:35:42;;;;;;;54.60;16.75;;;;;;;-1.64;73.50;98113.75;1683057;81;20970;-77
2022/02/01 00:38:23;;;;;;;44.13;17.07;;;;;;;-1.72;74.51;98109.02;1710836;81;20996;-77
2022/02/01 00:40:52;;;;;;;44.55;14.65;;;;;;;-1.80;74.83;98111.50;1721252;81;20994;-77
2022/02/01 00:43:12;;;;;;;48.00;15.78;;;;;;;-1.82;74.23;98113.61;1708583;81;21012;-78
2022/02/01 00:45:38;;;;;;;58.42;16.62;;;;;;;-1.86;73.67;98119.52;1721352;81;21017;-77
2022/02/01 00:48:05;;;;;;;79.60;18.42;;;;;;;-1.92;73.69;98119.47;1712704;81;21492;-77
2022/02/01 00:50:33;;;;;;;59.42;20.95;;;;;;;-1.96;74.50;98116.47;1699091;81;21023;-75
2022/02/01 00:53:00;;;;;;;60.25;18.87;;;;;;;-1.99;74.30;98119.81;1715128;81;20956;-77
2022/02/01 00:55:27;;;;;;;61.70;17.57;;;;;;;-2.04;74.30;98117.23;1692158;82;20993;-76
2022/02/01 00:57:53;;;;;;;64.47;18.65;;;;;;;-2.07;73.98;98113.41;1695605;82;20986;-77
2022/02/01 01:00:20;;;;;;;60.95;18.67;;;;;;;-2.11;74.38;98108.24;1709821;82;21029;-77
2022/02/01 01:02:46;;;;;;;68.47;24.87;;;;;;;-2.14;74.39;98105.26;1708644;82;21050;-77
2022/02/01 01:05:13;;;;;;;63.25;23.73;;;;;;;-2.13;74.87;98099.34;1696470;82;21485;-77
2022/02/01 01:07:39;;;;;;;67.27;20.40;;;;;;;-2.13;74.50;98104.44;1702859;82;21006;-77
2022/02/01 01:10:09;;;;;;;49.30;18.27;;;;;;;-2.13;75.01;98092.98;1692995;82;21284;-77
2022/02/01 01:12:45;;;;;;;56.28;17.80;;;;;;;-2.11;75.42;98100.60;1701477;82;20993;-77
2022/02/01 01:15:15;;;;;;;51.80;18.50;;;;;;;-2.12;75.01;98095.94;1699412;82;20990;-77
2022/02/01 01:18:06;;;;;;;53.15;18.77;;;;;;;-2.15;75.22;98096.32;1699859;82;21006;-77
2022/02/01 01:45:00;;;;;;;37.15;13.70;;;;;;;-2.38;75.62;98091.02;1660215;85;21517;-77
2022/02/01 01:53:14;;;;;;;44.90;15.85;;;;;;;-2.43;75.22;98085.86;1709119;82;20982;-77
2022/02/01 01:55:42;;;;;;;48.45;17.00;;;;;;;-2.52;75.72;98092.15;1721165;81;21091;-76
2022/02/01 01:58:10;;;;;;;54.23;18.35;;;;;;;-2.56;75.80;98084.05;1705719;81;21024;-77
2022/02/01 02:00:58;;;;;;;58.02;18.12;;;;;;;-2.61;74.84;98079.77;1718016;81;21012;-77
2022/02/01 02:03:08;;;;;;;62.03;18.37;;;;;;;-2.65;75.57;98077.98;1705977;81;21048;-76
2022/02/01 02:05:34;;;;;;;50.70;18.55;;;;;;;-2.69;74.86;98072.44;1727810;81;21070;-77
2022/02/01 02:08:04;;;;;;;58.68;18.62;;;;;;;-2.71;76.00;98080.47;1706024;81;21067;-77
2022/02/01 02:10:35;;;;;;;56.95;17.57;;;;;;;-2.72;75.82;98076.23;1727703;81;21028;-77
2022/02/01 02:16:01;;;;;;;51.70;17.50;;;;;;;-2.70;75.87;98079.66;1725019;81;21539;-77
2022/02/01 02:18:28;;;;;;;47.88;17.35;;;;;;;-2.71;75.80;98071.99;1714760;81;21041;-77
2022/02/01 02:20:57;;;;;;;41.02;15.25;;;;;;;-2.70;75.87;98083.89;1712128;81;20969;-77
2022/02/01 02:23:24;;;;;;;50.58;17.00;;;;;;;-2.71;75.96;98074.11;1718928;81;21076;-77
2022/02/01 02:25:52;;;;;;;48.35;15.98;;;;;;;-2.70;75.99;98070.75;1712526;81;20965;-77
2022/02/01 02:28:20;;;;;;;53.10;16.25;;;;;;;-2.68;75.63;98070.34;1719309;81;20970;-76
2022/02/01 02:30:51;;;;;;;52.40;15.03;;;;;;;-2.68;74.88;98069.07;1714665;81;20958;-77
2022/02/01 02:33:19;;;;;;;38.90;13.90;;;;;;;-2.71;75.39;98067.75;1719408;81;21995;-77
2022/02/01 02:36:04;;;;;;;40.63;13.90;;;;;;;-2.71;75.58;98065.20;1716624;81;21000;-77
2022/02/01 02:38:35;;;;;;;40.67;12.00;;;;;;;-2.71;75.44;98075.38;1726146;81;21072;-77
2022/02/01 02:41:08;;;;;;;33.33;9.60;;;;;;;-2.70;75.80;98078.80;1727228;81;20989;-77
2022/02/01 02:46:14;;;;;;;20.25;7.83;;;;;;;-2.70;75.57;98091.52;1717964;81;21021;-77
2022/02/01 02:48:40;;;;;;;27.95;8.73;;;;;;;-2.69;75.55;98096.61;1724251;81;20972;-77
2022/02/01 02:51:06;;;;;;;27.13;8.90;;;;;;;-2.65;75.90;98097.50;1709939;81;20977;-76
2022/02/01 02:53:33;;;;;;;32.35;8.38;;;;;;;-2.67;75.96;98100.02;1725680;81;21477;-76
2022/02/01 02:56:05;;;;;;;23.75;7.80;;;;;;;-2.69;75.88;98118.23;1709639;81;21061;-77
2022/02/01 02:58:31;;;;;;;30.40;8.40;;;;;;;-2.68;75.73;98125.47;1726897;81;20997;-77
2022/02/01 03:00:57;;;;;;;14.73;7.20;;;;;;;-2.69;75.75;98122.48;1705440;81;20999;-77
2022/02/01 03:03:24;;;;;;;17.55;6.40;;;;;;;-2.65;75.24;98130.58;1726448;81;21067;-79
2022/02/01 03:05:51;;;;;;;24.90;7.22;;;;;;;-2.68;76.07;98128.02;1721157;81;21004;-77
2022/02/01 03:08:17;;;;;;;25.08;7.42;;;;;;;-2.72;76.03;98125.84;1703144;81;21465;-78
2022/02/01 03:10:45;;;;;;;24.23;7.20;;;;;;;-2.78;75.82;98127.05;1715179;81;20991;-78
2022/02/01 03:13:16;;;;;;;28.20;7.72;;;;;;;-2.79;76.46;98124.05;1721553;81;21037;-79
2022/02/01 03:15:48;;;;;;;27.13;8.35;;;;;;;-2.76;76.08;98138.52;1714778;81;21037;-78
2022/02/01 03:20:53;;;;;;;23.55;7.47;;;;;;;-2.71;76.39;98134.33;1715483;81;21019;-79
2022/02/01 03:23:19;;;;;;;27.05;8.68;;;;;;;-2.67;76.16;98129.28;1700822;81;21025;-77
2022/02/01 03:25:46;;;;;;;24.37;8.10;;;;;;;-2.65;76.07;98130.16;1717477;81;21000;-78
2022/02/01 03:28:12;;;;;;;27.15;9.50;;;;;;;-2.65;76.36;98122.95;1701924;81;20969;-78
2022/02/01 03:30:39;;;;;;;27.30;9.28;;;;;;;-2.62;75.79;98125.55;1722561;81;21000;-77
2022/02/01 03:33:05;;;;;;;32.73;10.45;;;;;;;-2.66;76.49;98125.92;1709991;81;21012;-76
2022/02/01 03:35:32;;;;;;;30.15;9.48;;;;;;;-2.64;76.45;98131.88;1722322;81;21053;-76
2022/02/01 03:38:00;;;;;;;30.65;8.90;;;;;;;-2.59;75.86;98128.11;1712042;81;21028;-76
2022/02/01 03:40:27;;;;;;;30.15;9.68;;;;;;;-2.57;76.61;98125.16;1722165;81;21010;-78
2022/02/01 03:42:53;;;;;;;38.42;10.45;;;;;;;-2.53;76.46;98128.59;1717551;81;21005;-77
2022/02/01 03:45:19;;;;;;;33.20;10.43;;;;;;;-2.55;76.75;98117.13;1719666;81;21508;-76
2022/02/01 03:47:46;;;;;;;25.62;9.70;;;;;;;-2.43;76.71;98134.23;1719712;81;21008;-77
2022/02/01 03:50:13;;;;;;;39.53;10.28;;;;;;;-2.42;76.48;98134.67;1718627;81;20989;-76
2022/02/01 03:52:40;;;;;;;30.60;10.98;;;;;;;-2.38;76.46;98133.87;1712837;81;21099;-77
2022/02/01 03:55:07;;;;;;;26.40;10.90;;;;;;;-2.31;75.40;98146.23;1712162;81;21131;-77
2022/02/01 03:57:33;;;;;;;29.32;10.63;;;;;;;-2.34;75.55;98144.95;1704419;82;21037;-77
2022/02/01 04:00:00;;;;;;;31.48;10.60;;;;;;;-2.39;75.96;98146.15;1711039;82;21052;-78
2022/02/01 04:02:26;;;;;;;46.18;12.37;;;;;;;-2.36;76.04;98148.74;1709195;82;21607;-77
2022/02/01 04:04:53;;;;;;;40.83;11.33;;;;;;;-2.37;76.23;98154.66;1703346;82;21009;-77
2022/02/01 04:07:21;;;;;;;35.78;9.75;;;;;;;-2.38;75.92;98156.78;1712459;82;21091;-77
2022/02/01 04:09:52;;;;;;;30.37;10.25;;;;;;;-2.35;75.48;98158.07;1694753;82;21024;-77
2022/02/01 04:12:16;;;;;;;37.08;9.90;;;;;;;-2.38;75.68;98161.03;1714443;82;21628;-77
2022/02/01 04:14:43;;;;;;;34.27;10.48;;;;;;;-2.33;75.50;98166.58;1705505;83;20994;-77
2022/02/01 04:17:11;;;;;;;34.53;9.95;;;;;;;-2.33;75.76;98170.83;1714423;83;21103;-77
2022/02/01 04:19:38;;;;;;;35.28;11.95;;;;;;;-2.30;75.81;98173.42;1697174;82;21047;-77
2022/02/01 04:22:06;;;;;;;40.48;11.97;;;;;;;-2.28;76.17;98166.23;1712767;82;21001;-77
2022/02/01 04:24:38;;;;;;;45.70;13.30;;;;;;;-2.22;75.90;98171.38;1702805;82;21583;-77
2022/02/01 04:27:07;;;;;;;42.17;14.00;;;;;;;-2.19;76.29;98178.19;1711133;82;21069;-78
2022/02/01 04:29:38;;;;;;;40.73;14.70;;;;;;;-2.13;75.88;98173.59;1699707;82;21080;-77
2022/02/01 04:32:04;;;;;;;46.55;14.15;;;;;;;-2.12;75.60;98185.50;1690374;82;21616;-79
2022/02/01 04:34:30;;;;;;;45.45;12.18;;;;;;;-2.10;75.77;98182.13;1704109;82;21036;-77
2022/02/01 04:36:57;;;;;;;39.95;10.43;;;;;;;-2.03;75.25;98183.03;1697066;82;21536;-78
2022/02/01 04:39:23;;;;;;;41.92;13.30;;;;;;;-2.04;75.55;98186.44;1707685;82;21041;-76
2022/02/01 04:41:50;;;;;;;36.77;10.20;;;;;;;-1.99;75.57;98184.77;1698552;82;21076;-77
2022/02/01 04:44:16;;;;;;;40.98;13.18;;;;;;;-1.94;75.16;98192.05;1712503;82;21048;-77
2022/02/01 04:46:42;;;;;;;40.28;12.28;;;;;;;-1.94;75.04;98193.33;1698680;82;21540;-77
2022/02/01 04:49:11;;;;;;;35.70;12.80;;;;;;;-1.89;75.36;98201.88;1710655;82;21028;-77
2022/02/01 04:51:38;;;;;;;45.30;12.05;;;;;;;-1.84;74.98;98207.86;1701756;82;22133;-77
2022/02/01 04:54:05;;;;;;;48.87;14.43;;;;;;;-1.82;75.21;98193.44;1709463;82;21567;-77
2022/02/01 04:56:32;;;;;;;39.98;13.90;;;;;;;-1.81;75.07;98197.71;1683238;82;21051;-77
2022/02/01 04:58:58;;;;;;;28.30;12.35;;;;;;;-1.74;75.09;98202.44;1643617;85;21073;-76
2022/02/01 05:01:35;;;;;;;42.60;12.78;;;;;;;-1.68;74.90;98200.38;1671374;84;21044;-77
2022/02/01 05:03:53;;;;;;;47.33;15.28;;;;;;;-1.64;74.82;98200.83;1644969;85;21056;-77
2022/02/01 05:06:22;;;;;;;45.78;17.27;;;;;;;-1.63;74.71;98204.68;1649203;85;21350;-76
2022/02/01 05:08:47;;;;;;;61.45;20.20;;;;;;;-1.62;74.78;98200.42;1646909;85;21027;-77
2022/02/01 05:11:14;;;;;;;48.20;16.50;;;;;;;-1.61;74.95;98204.70;1654893;85;21055;-77
2022/02/01 05:16:20;;;;;;;104.38;30.25;;;;;;;-1.65;74.86;98211.85;1651634;85;21123;-77
2022/02/01 05:18:49;;;;;;;66.72;21.70;;;;;;;-1.61;75.07;98216.17;1649370;85;21051;-77
2022/02/01 05:21:24;;;;;;;60.43;17.67;;;;;;;-1.55;75.12;98215.34;1654839;85;21043;-77
2022/02/01 05:23:53;;;;;;;53.90;15.78;;;;;;;-1.54;75.01;98214.09;1639306;85;21060;-77
2022/02/01 05:26:23;;;;;;;54.38;15.88;;;;;;;-1.51;74.78;98217.95;1656121;85;21551;-77
2022/02/01 05:28:51;;;;;;;47.33;15.20;;;;;;;-1.52;74.59;98227.70;1639951;85;21063;-76
2022/02/01 05:31:18;;;;;;;58.95;17.95;;;;;;;-1.52;74.51;98225.16;1657271;85;21050;-77
2022/02/01 05:33:44;;;;;;;48.08;13.35;;;;;;;-1.52;73.95;98230.69;1654075;85;21018;-78
2022/02/01 05:36:11;;;;;;;39.58;13.08;;;;;;;-1.64;74.14;98231.42;1657837;85;21008;-77
2022/02/01 05:38:37;;;;;;;42.65;14.75;;;;;;;-1.69;73.99;98227.56;1637297;85;21432;-76
2022/02/01 05:41:04;;;;;;;74.40;22.52;;;;;;;-1.71;74.03;98226.69;1637021;85;21574;-77
2022/02/01 05:43:31;;;;;;;108.52;30.68;;;;;;;-1.80;74.51;98229.98;1636218;85;21506;-77
2022/02/01 05:45:59;;;;;;;44.38;14.40;;;;;;;-1.82;74.56;98234.64;1639870;85;21024;-77
2022/02/01 05:48:26;;;;;;;35.40;12.78;;;;;;;-1.82;74.28;98236.76;1648386;85;21059;-78
2022/02/01 05:50:56;;;;;;;69.67;16.32;;;;;;;-1.81;74.58;98237.61;1640585;85;20996;-78
2022/02/01 05:53:23;;;;;;;84.70;18.02;;;;;;;-1.77;74.71;98241.92;1649865;85;21043;-77
2022/02/01 05:55:50;;;;;;;37.13;12.45;;;;;;;-1.73;74.91;98243.66;1646664;84;21051;-77
2022/02/01 05:58:18;;;;;;;41.00;13.10;;;;;;;-1.67;74.99;98245.00;1665125;84;21020;-77
2022/02/01 06:00:46;;;;;;;43.87;14.68;;;;;;;-1.61;75.29;98250.58;1633714;85;22335;-76
2022/02/01 06:03:13;;;;;;;39.70;13.90;;;;;;;-1.55;75.03;98245.53;1664405;84;21735;-76
2022/02/01 06:05:39;;;;;;;37.48;13.60;;;;;;;-1.50;74.80;98259.16;1659064;86;20979;-77
2022/02/01 06:08:06;;;;;;;43.38;14.78;;;;;;;-1.48;75.06;98256.20;1659791;84;21019;-77
2022/02/01 06:10:33;;;;;;;44.98;14.70;;;;;;;-1.43;74.93;98263.92;1652015;86;21023;-77
2022/02/01 06:13:00;;;;;;;48.05;16.05;;;;;;;-1.37;74.71;98272.02;1661974;84;21083;-77
2022/02/01 06:15:29;;;;;;;47.20;14.93;;;;;;;-1.32;74.59;98274.20;1661741;84;21076;-77
2022/02/01 06:17:57;;;;;;;52.45;16.07;;;;;;;-1.30;74.47;98277.63;1659909;84;21063;-77
2022/02/01 06:20:23;;;;;;;59.40;19.00;;;;;;;-1.27;74.60;98283.61;1664217;84;21179;-77
2022/02/01 06:22:50;;;;;;;53.08;20.25;;;;;;;-1.25;74.53;98293.41;1657641;84;21051;-77
2022/02/01 06:25:23;;;;;;;60.10;24.25;;;;;;;-1.23;74.29;98292.16;1661249;84;21546;-77
2022/02/01 06:27:44;;;;;;;130.55;48.50;;;;;;;-1.29;74.13;98297.20;1661644;84;21055;-77
2022/02/01 06:30:11;;;;;;;90.47;36.68;;;;;;;-1.31;74.16;98296.33;1663567;84;21078;-77
2022/02/01 06:32:40;;;;;;;57.67;22.87;;;;;;;-1.33;74.61;98309.06;1700616;82;21700;-77
2022/02/01 06:35:09;;;;;;;93.55;30.05;;;;;;;-1.31;74.78;98317.58;1699000;82;21040;-77
2022/02/01 06:37:35;;;;;;;88.65;24.82;;;;;;;-1.28;74.74;98320.14;1707535;82;21029;-77
2022/02/01 06:40:03;;;;;;;43.90;14.65;;;;;;;-1.24;75.00;98328.69;1712877;82;21128;-77
2022/02/01 06:42:30;;;;;;;46.10;16.75;;;;;;;-1.25;74.23;98325.28;1699119;82;21216;-77
2022/02/01 06:44:56;;;;;;;49.42;14.23;;;;;;;-1.21;74.45;98328.30;1713201;82;21024;-77
2022/02/01 06:47:23;;;;;;;59.35;18.37;;;;;;;-1.17;73.95;98325.77;1703339;82;21045;-77
2022/02/01 06:49:49;;;;;;;48.70;16.10;;;;;;;-1.18;73.93;98331.72;1714727;82;20989;-76
2022/02/01 06:52:15;;;;;;;59.65;19.02;;;;;;;-1.11;74.10;98336.05;1709833;82;21332;-77
2022/02/01 06:54:42;;;;;;;51.33;17.15;;;;;;;-1.06;73.82;98336.50;1700144;82;21519;-77
2022/02/01 06:57:08;;;;;;;61.63;19.45;;;;;;;-1.03;73.65;98345.47;1685309;82;21071;-77
2022/02/01 06:59:35;;;;;;;64.35;19.67;;;;;;;-0.94;73.87;98340.02;1682407;84;21011;-77
2022/02/01 07:02:01;;;;;;;67.03;20.62;;;;;;;-0.90;73.81;98343.88;1678964;83;21566;-77
2022/02/01 07:04:28;;;;;;;47.93;17.55;;;;;;;-0.82;73.83;98340.98;1680117;84;21055;-77
2022/02/01 07:06:56;;;;;;;44.25;12.73;;;;;;;-0.74;73.34;98342.73;1676755;84;21480;-76
2022/02/01 07:09:23;;;;;;;33.20;10.08;;;;;;;-0.71;73.26;98342.77;1717665;82;21011;-77
2022/02/01 07:11:49;;;;;;;32.33;10.93;;;;;;;-0.75;72.89;98344.87;1719598;82;20992;-76
2022/02/01 07:14:16;;;;;;;34.80;10.75;;;;;;;-0.71;72.99;98339.78;1718198;82;20996;-76
2022/02/01 07:16:42;;;;;;;36.77;11.90;;;;;;;-0.66;73.00;98333.43;1713080;82;20966;-76
2022/02/01 07:19:09;;;;;;;35.17;11.00;;;;;;;-0.64;72.88;98331.34;1716833;82;21002;-78
2022/02/01 07:21:35;;;;;;;27.80;10.95;;;;;;;-0.61;72.82;98336.45;1720746;82;21065;-76
2022/02/01 07:24:04;;;;;;;25.95;9.78;;;;;;;-0.61;72.56;98340.28;1718428;82;21015;-77
2022/02/01 07:26:31;;;;;;;29.75;10.05;;;;;;;-0.53;72.80;98340.34;1707291;82;20969;-77
2022/02/01 07:28:58;;;;;;;33.55;10.00;;;;;;;-0.50;72.52;98344.17;1707595;82;21045;-76
2022/02/01 07:31:24;;;;;;;28.07;8.53;;;;;;;-0.44;72.68;98348.08;1722617;82;21035;-76
2022/02/01 07:33:51;;;;;;;40.23;11.30;;;;;;;-0.36;72.24;98354.48;1726734;82;20988;-77
2022/02/01 07:36:17;;;;;;;27.48;9.63;;;;;;;-0.27;72.23;98349.88;1727403;82;20991;-77
2022/02/01 07:38:44;;;;;;;36.13;11.60;;;;;;;-0.21;72.22;98349.92;1712449;82;20962;-77
2022/02/01 07:41:11;;;;;;;33.42;10.82;;;;;;;-0.11;72.21;98347.00;1724362;82;21005;-77
2022/02/01 07:43:38;;;;;;;37.23;12.07;;;;;;;-0.08;71.81;98344.44;1717960;82;20997;-77
2022/02/01 07:46:08;;;;;;;25.92;9.93;;;;;;;-0.02;71.98;98348.30;1722180;82;21584;-77
2022/02/01 07:48:33;;;;;;;30.00;10.38;;;;;;;0.02;71.77;98350.45;1723729;81;20995;-76
2022/02/01 07:51:00;;;;;;;31.95;9.38;;;;;;;0.05;71.15;98356.45;1721899;82;21058;-77
2022/02/01 07:53:27;;;;;;;31.20;9.55;;;;;;;0.06;71.24;98360.72;1724832;82;21013;-79
2022/02/01 07:55:53;;;;;;;32.17;9.38;;;;;;;0.14;71.12;98360.34;1715586;82;21632;-77
2022/02/01 07:58:19;;;;;;;28.83;10.03;;;;;;;0.06;70.61;98364.56;1728971;80;21063;-78
2022/02/01 08:00:46;;;;;;;31.77;9.50;;;;;;;0.14;70.99;98373.52;1722467;81;21409;-78
2022/02/01 08:03:12;;;;;;;32.70;10.53;;;;;;;0.15;70.61;98376.09;1736413;81;21114;-78
2022/02/01 08:05:39;;;;;;;28.85;9.63;;;;;;;0.22;70.90;98371.88;1728750;81;21028;-79
2022/02/01 08:08:07;;;;;;;36.35;10.58;;;;;;;0.24;70.43;98370.19;1722240;81;21387;-78
2022/02/01 08:10:48;;;;;;;33.30;10.25;;;;;;;0.29;70.37;98371.04;1727926;81;21028;-77
2022/02/01 08:21:29;;;;;;;30.12;9.25;;;;;;;0.67;69.33;98368.20;1696946;83;21047;-77
2022/02/01 08:23:56;;;;;;;32.53;10.53;;;;;;;0.58;68.74;98369.03;1679265;83;21111;-77
2022/02/01 08:26:26;;;;;;;34.25;10.05;;;;;;;0.62;69.05;98374.59;1677679;84;20950;-78
2022/02/01 08:28:53;;;;;;;34.33;9.50;;;;;;;0.69;69.06;98365.22;1722994;80;21674;-78
2022/02/01 08:31:20;;;;;;;39.78;11.12;;;;;;;0.71;69.25;98376.31;1733852;81;21035;-76
2022/02/01 08:33:46;;;;;;;33.65;9.10;;;;;;;0.79;68.94;98366.95;1729126;81;20980;-78
2022/02/01 08:36:13;;;;;;;33.88;9.15;;;;;;;0.85;68.75;98382.31;1709380;82;21032;-78
2022/02/01 08:38:39;;;;;;;38.98;10.50;;;;;;;0.83;67.51;98378.89;1715104;82;21076;-78
2022/02/01 08:41:06;;;;;;;32.20;7.60;;;;;;;0.89;67.60;98372.94;1718187;82;21683;-78
2022/02/01 08:43:32;;;;;;;35.50;9.30;;;;;;;0.93;67.07;98384.45;1718836;82;21056;-78
2022/02/01 08:45:59;;;;;;;33.80;9.93;;;;;;;1.04;68.05;98385.77;1719269;82;21010;-78
2022/02/01 08:48:25;;;;;;;28.52;9.18;;;;;;;1.15;68.55;98378.09;1728311;81;21041;-78
2022/02/01 08:50:52;;;;;;;30.80;10.38;;;;;;;1.19;67.66;98380.69;1716028;82;21017;-78
2022/02/01 08:53:23;;;;;;;32.00;8.73;;;;;;;1.33;68.16;98383.66;1717652;82;21121;-78
2022/02/01 08:56:02;;;;;;;28.45;8.60;;;;;;;1.39;67.80;98383.25;1716945;82;21102;-79
2022/02/01 08:58:19;;;;;;;26.50;8.78;;;;;;;1.41;67.14;98387.50;1678237;83;21560;-79
2022/02/01 09:00:46;;;;;;;22.70;7.92;;;;;;;1.49;67.13;98378.98;1701913;82;21529;-79
2022/02/01 09:03:13;;;;;;;30.97;7.70;;;;;;;1.56;67.23;98382.39;1700727;82;21117;-80
2022/02/01 09:05:45;;;;;;;27.20;7.60;;;;;;;1.57;66.37;98375.99;1701892;82;21024;-77
2022/02/01 09:08:12;;;;;;;30.95;8.85;;;;;;;1.59;65.99;98372.13;1703314;82;21045;-78
2022/02/01 09:10:38;;;;;;;26.48;9.25;;;;;;;1.70;65.57;98382.38;1682071;82;21422;-79
2022/02/01 09:13:05;;;;;;;33.78;8.28;;;;;;;1.82;65.98;98384.08;1699482;82;21017;-78
2022/02/01 09:15:31;;;;;;;38.33;9.28;;;;;;;1.87;66.38;98371.69;1702485;82;21055;-79
2022/02/01 09:18:00;;;;;;;55.10;12.43;;;;;;;1.95;66.36;98376.77;1696932;82;21037;-79
2022/02/01 09:20:29;;;;;;;24.02;7.17;;;;;;;2.02;64.99;98377.63;1706141;82;21034;-77
2022/02/01 09:22:56;;;;;;;35.50;8.78;;;;;;;2.17;66.29;98391.27;1700603;82;21523;-79
2022/02/01 09:25:23;;;;;;;34.05;7.92;;;;;;;2.12;64.71;98390.85;1675253;83;21578;-78
2022/02/01 09:27:50;;;;;;;38.65;9.78;;;;;;;2.15;65.46;98390.42;1704547;82;20963;-77
2022/02/01 09:30:20;;;;;;;27.67;9.03;;;;;;;2.18;64.99;98381.86;1698518;82;20979;-79
2022/02/01 09:32:47;;;;;;;39.42;11.55;;;;;;;2.19;64.94;98383.14;1702805;83;21062;-77
2022/02/01 09:35:14;;;;;;;29.85;9.33;;;;;;;2.24;64.34;98383.55;1646711;85;21025;-78
2022/02/01 09:37:41;;;;;;;50.00;13.08;;;;;;;2.34;65.23;98387.79;1701984;83;21077;-76
2022/02/01 09:40:09;;;;;;;31.48;9.88;;;;;;;2.29;63.91;98384.38;1701144;82;21061;-77
2022/02/01 09:42:40;;;;;;;28.98;8.68;;;;;;;2.34;63.96;98379.66;1676036;83;21065;-78
2022/02/01 09:45:08;;;;;;;25.57;8.60;;;;;;;2.39;63.26;98380.95;1703004;82;21048;-78
2022/02/01 09:47:39;;;;;;;24.18;8.55;;;;;;;2.48;64.33;98370.63;1701691;83;21033;-78
2022/02/01 09:50:07;;;;;;;31.55;8.80;;;;;;;2.56;62.77;98365.02;1703777;82;21045;-79
2022/02/01 09:52:35;;;;;;;28.85;7.37;;;;;;;2.70;64.33;98364.95;1699314;82;21029;-79
2022/02/01 09:55:02;;;;;;;19.35;6.55;;;;;;;2.77;62.89;98365.80;1700520;83;21017;-78
2022/02/01 09:57:30;;;;;;;22.65;7.37;;;;;;;2.75;61.54;98365.80;1700116;82;21037;-79
2022/02/01 10:00:00;;;;;;;22.35;7.72;;;;;;;2.82;62.93;98371.74;1707213;82;21504;-78
2022/02/01 10:02:39;;;;;;;22.90;7.20;;;;;;;2.83;63.49;98362.35;1705101;82;20990;-77
2022/02/01 10:05:10;;;;;;;30.72;9.05;;;;;;;2.84;62.53;98367.45;1706623;82;21033;-80
2022/02/01 10:07:50;;;;;;;25.02;9.18;;;;;;;2.81;61.91;98361.07;1681370;83;21555;-79
2022/02/01 10:10:18;;;;;;;25.02;7.78;;;;;;;2.85;62.49;98362.75;1666917;84;21756;-77
2022/02/01 10:13:16;;;;;;;32.53;9.23;;;;;;;2.90;62.12;98357.14;1680109;83;21073;-79
2022/02/01 10:16:05;;;;;;;24.30;8.93;;;;;;;2.96;62.22;98362.67;1683392;84;21020;-77
2022/02/01 10:18:33;;;;;;;33.33;10.20;;;;;;;3.01;61.18;98360.10;1683987;83;21023;-77
2022/02/01 10:21:10;;;;;;;34.45;10.72;;;;;;;3.07;62.18;98369.05;1677076;85;21060;-79
2022/02/01 10:23:40;;;;;;;43.65;12.10;;;;;;;3.11;62.22;98366.88;1680792;83;21561;-77
2022/02/01 10:26:16;;;;;;;40.48;12.65;;;;;;;3.11;61.88;98357.89;1679810;83;21087;-76
2022/02/01 10:31:42;;;;;;;31.55;10.10;;;;;;;3.10;62.15;98359.58;1679048;84;21008;-77
2022/02/01 10:34:29;;;;;;;40.00;11.90;;;;;;;3.09;62.15;98359.17;1681756;82;20999;-78
2022/02/01 10:36:57;;;;;;;34.85;11.28;;;;;;;3.13;61.50;98344.16;1682307;83;21026;-78
2022/02/01 10:39:29;;;;;;;27.85;11.03;;;;;;;3.19;61.99;98345.40;1673682;83;21032;-78
2022/02/01 10:42:03;;;;;;;44.08;13.43;;;;;;;3.21;61.51;98338.13;1672915;83;21642;-78
2022/02/01 10:44:42;;;;;;;36.60;13.40;;;;;;;3.25;60.51;98341.94;1680676;83;21578;-81
2022/02/01 10:47:14;;;;;;;38.70;13.13;;;;;;;3.32;61.27;98350.03;1686588;83;21000;-77
2022/02/01 10:49:41;;;;;;;42.05;12.25;;;;;;;3.41;61.69;98340.53;1705712;82;21014;-78
2022/02/01 10:52:12;;;;;;;33.13;12.43;;;;;;;3.39;62.01;98336.69;1703246;82;20986;-79
2022/02/01 10:54:41;;;;;;;32.98;12.95;;;;;;;3.45;61.86;98333.22;1702905;83;22180;-78
2022/02/01 10:57:11;;;;;;;133.85;59.63;;;;;;;3.46;61.87;98335.78;1701643;82;21018;-78
2022/02/01 10:59:39;;;;;;;42.58;18.35;;;;;;;3.50;61.28;98334.02;1684874;83;21085;-78
2022/02/01 11:02:06;;;;;;;39.18;15.35;;;;;;;3.54;60.99;98335.28;1715316;82;21100;-79
2022/02/01 11:04:37;;;;;;;42.17;15.48;;;;;;;3.57;61.22;98328.80;1686048;82;21070;-78
2022/02/01 11:07:05;;;;;;;56.80;17.23;;;;;;;3.63;61.20;98325.33;1687678;83;20993;-77
2022/02/01 11:09:34;;;;;;;63.52;25.68;;;;;;;3.66;61.17;98321.46;1690566;82;21031;-78
2022/02/01 11:12:10;;;;;;;61.83;16.85;;;;;;;3.74;60.73;98329.95;1742183;81;21019;-77
2022/02/01 11:14:45;;;;;;;38.85;13.32;;;;;;;3.86;60.16;98322.95;1736772;81;21023;-79
2022/02/01 11:17:18;;;;;;;36.60;13.22;;;;;;;3.91;60.33;98320.76;1739819;81;21032;-78
2022/02/01 11:19:57;;;;;;;34.38;11.33;;;;;;;3.96;59.14;98316.87;1736321;81;20982;-77
2022/02/01 11:22:31;;;;;;;39.90;12.40;;;;;;;4.05;59.57;98312.05;1735563;81;20988;-78
2022/02/01 11:25:28;;;;;;;39.25;11.80;;;;;;;4.08;60.75;98306.84;1718840;81;21011;-78
2022/02/01 11:30:41;;;;;;;38.08;11.60;;;;;;;4.17;58.75;98301.16;1728834;81;21079;-78
2022/02/01 11:33:11;;;;;;;33.92;11.30;;;;;;;4.36;60.38;98300.95;1744976;81;20978;-79
2022/02/01 11:35:40;;;;;;;42.90;11.38;;;;;;;4.52;58.33;98306.75;1706140;81;21052;-77
2022/02/01 11:38:21;;;;;;;35.20;12.03;;;;;;;4.65;58.91;98308.27;1737215;81;21049;-78
2022/02/01 11:40:52;;;;;;;43.50;9.93;;;;;;;4.75;57.64;98311.57;1742427;81;21543;-79
2022/02/01 11:43:24;;;;;;;32.85;10.35;;;;;;;4.79;58.40;98313.23;1722853;81;21300;-80
2022/02/01 11:45:57;;;;;;;34.48;12.65;;;;;;;4.84;55.93;98310.16;1743942;81;21045;-80
2022/02/01 11:48:28;;;;;;;36.17;11.35;;;;;;;4.98;56.83;98309.52;1744598;81;21028;-79
2022/02/01 11:51:07;;;;;;;45.20;13.55;;;;;;;5.10;58.44;98307.19;1738828;81;20973;-79
2022/02/01 11:53:41;;;;;;;45.92;12.65;;;;;;;5.19;58.44;98306.18;1739132;81;21060;-78
2022/02/01 11:56:11;;;;;;;27.50;10.98;;;;;;;5.37;58.75;98299.88;1734104;81;21142;-83
2022/02/01 11:58:46;;;;;;;28.27;12.03;;;;;;;5.46;57.39;98307.45;1731318;81;21628;-80
2022/02/01 12:01:31;;;;;;;35.00;11.45;;;;;;;5.63;57.58;98300.73;1735660;81;21124;-80
2022/02/01 12:04:05;;;;;;;33.53;11.10;;;;;;;5.92;57.40;98298.89;1730351;81;21072;-79
2022/02/01 12:06:46;;;;;;;28.38;9.38;;;;;;;6.18;52.57;98298.85;1732558;81;22239;-79
2022/02/01 12:09:21;;;;;;;25.65;9.10;;;;;;;6.37;53.85;98291.14;1737182;81;20981;-80
2022/02/01 12:11:54;;;;;;;23.30;8.23;;;;;;;6.54;52.78;98287.34;1725060;81;21486;-79
2022/02/01 12:14:20;;;;;;;31.87;8.95;;;;;;;6.66;55.01;98292.69;1726115;81;21005;-80
2022/02/01 12:16:50;;;;;;;30.43;7.25;;;;;;;6.71;52.54;98284.41;1725747;81;21518;-79
2022/02/01 12:19:31;;;;;;;23.22;7.67;;;;;;;6.61;48.86;98286.34;1733007;81;20987;-80
2022/02/01 12:22:25;;;;;;;18.27;5.85;;;;;;;6.67;51.43;98286.65;1737834;80;21265;-79
2022/02/01 12:24:52;;;;;;;17.30;5.95;;;;;;;6.54;51.98;98288.19;1734443;81;21005;-81
2022/02/01 12:27:19;;;;;;;26.62;6.62;;;;;;;6.52;53.62;98280.91;1712055;82;20969;-79
2022/02/01 12:29:45;;;;;;;23.42;6.87;;;;;;;6.48;51.36;98288.32;1719789;81;21028;-76
2022/02/01 12:32:12;;;;;;;22.45;7.85;;;;;;;6.42;50.83;98289.75;1712621;81;21028;-77
2022/02/01 12:34:39;;;;;;;27.85;8.38;;;;;;;6.47;50.88;98286.64;1722508;81;21001;-79
2022/02/01 12:37:08;;;;;;;24.98;8.70;;;;;;;6.66;51.03;98278.03;1737497;81;21032;-79
2022/02/01 12:39:35;;;;;;;23.10;7.45;;;;;;;6.89;53.68;98286.56;1731200;81;21083;-78
2022/02/01 12:47:07;;;;;;;19.37;6.70;;;;;;;8.10;47.14;98285.66;1745994;81;21040;-77
2022/02/01 12:49:44;;;;;;;16.65;6.47;;;;;;;8.46;51.99;98286.37;1741220;81;21009;-77
2022/02/01 12:52:27;;;;;;;19.07;5.92;;;;;;;8.45;46.36;98294.17;1727611;81;21017;-80
2022/02/01 12:55:13;;;;;;;17.98;6.40;;;;;;;8.36;49.52;98288.34;1722981;81;21056;-78
2022/02/01 12:57:42;;;;;;;23.42;6.78;;;;;;;8.11;46.42;98292.52;1721620;80;21033;-79